Mariner Of The Seas — C6FV9 — position and weather

sailwx.info

Track history (hours):
 
Tides and Currents Weather Stations Pressure Air Temp Water Temp Dewpoint Dewpoint Depression Visibility Wind Speed Wind Dir Waves Ship Positions

Mariner Of The Seas

Operator: Royal Caribbean Cruises Ltd

Last reported at 2014-Jul-24 10:20 UTC. Time now 2014-Jul-25 03:50 UTC.
Position N 31°17' E 121°48'.

Type: Passenger vessel. MMSI: 311493000.

Date/timePositionNaut miles runAvg speedWind from/ knotsBaromVisibWave heightAir tempDewpointWater temp
2014-Jul-24 10:20N 31°17' E 121°48'1113.4
2014-Jul-24 09:33N 31°22' E 121°37'7 6.5
2014-Jul-24 08:31N 31°25' E 121°30'0 0.0
2014-Jul-24 07:31N 31°25' E 121°30'0 0.0
2014-Jul-24 06:31N 31°25' E 121°30'0 0.0
2014-Jul-24 05:31N 31°25' E 121°30'0 0.0
2014-Jul-24 04:13N 31°25' E 121°30'0 0.0
2014-Jul-24 03:31N 31°25' E 121°30'0 0.0
2014-Jul-24 02:31N 31°25' E 121°30'0 0.0
2014-Jul-24 01:31N 31°25' E 121°30'0 0.0
2014-Jul-24 00:31N 31°25' E 121°30'0 0.0
2014-Jul-23 23:31N 31°25' E 121°30'0 0.0
2014-Jul-23 22:33N 31°25' E 121°30'6 5.5
2014-Jul-23 21:32N 31°23' E 121°36'1212.2
2014-Jul-23 20:32N 31°17' E 121°49'2410.6
2014-Jul-23 18:18N 31°08' E 122°15'1013.2
2014-Jul-23 17:32N 31°06' E 122°26'409 7.9
2014-Jul-21 13:33N 33°41' E 129°55'1111.2
2014-Jul-21 12:33N 33°44' E 130°08'1010.3
2014-Jul-21 11:33N 33°39' E 130°18'5 4.1
2014-Jul-21 10:17N 33°37' E 130°24'0 0.0
2014-Jul-21 09:32N 33°37' E 130°24'0 0.0
2014-Jul-21 08:29N 33°37' E 130°24'0 0.0
2014-Jul-21 07:29N 33°37' E 130°24'0 0.0
2014-Jul-21 06:32N 33°37' E 130°24'0 0.0
2014-Jul-21 05:32N 33°37' E 130°24'0 0.0
2014-Jul-21 04:32N 33°37' E 130°24'0 0.0
2014-Jul-21 03:32N 33°37' E 130°24'0 0.0
2014-Jul-21 02:32N 33°37' E 130°24'0 0.0
2014-Jul-21 01:32N 33°37' E 130°24'4 3.7
2014-Jul-21 00:33N 33°38' E 130°20'1212.2
2014-Jul-20 23:33N 33°44' E 130°07'41112.1
2014-Jul-19 13:33N 31°14' E 122°34'3911.5
2014-Jul-19 10:09N 31°17' E 121°48'812.4
2014-Jul-19 09:32N 31°21' E 121°40'9 9.7
2014-Jul-19 08:33N 31°25' E 121°30'0 0.1
2014-Jul-19 07:31N 31°25' E 121°30'0 0.0
2014-Jul-19 06:31N 31°25' E 121°30'0 0.0
2014-Jul-19 05:31N 31°25' E 121°30'0 0.0
2014-Jul-19 04:31N 31°25' E 121°30'0 0.0
2014-Jul-19 03:25N 31°25' E 121°30'0 0.0
2014-Jul-19 02:25N 31°25' E 121°30'0 0.0
2014-Jul-19 01:31N 31°25' E 121°30'0 0.0
2014-Jul-19 00:31N 31°25' E 121°30'0 0.0
2014-Jul-18 23:31N 31°25' E 121°30'0 0.0
2014-Jul-18 22:26N 31°25' E 121°30'7 8.1
2014-Jul-18 21:33N 31°22' E 121°38'1211.7
2014-Jul-18 20:31N 31°17' E 121°51'2512.7
2014-Jul-18 18:33N 31°07' E 122°17'  
2014-Jul-15 09:32N 31°19' E 121°45'1212.2
2014-Jul-15 08:33N 31°24' E 121°32'2 1.8
2014-Jul-15 07:30N 31°25' E 121°30'0 0.0
2014-Jul-15 06:30N 31°25' E 121°30'0 0.0
2014-Jul-15 05:30N 31°25' E 121°30'0 0.0
2014-Jul-15 04:18N 31°25' E 121°30'0 0.0
2014-Jul-15 03:30N 31°25' E 121°30'0 0.0
2014-Jul-15 02:30N 31°25' E 121°30'0 0.0
2014-Jul-15 01:30N 31°25' E 121°30'0 0.0
2014-Jul-15 00:30N 31°25' E 121°30'0 0.0
2014-Jul-14 23:30N 31°25' E 121°30'0 0.0
2014-Jul-14 22:30N 31°25' E 121°30'0 0.0
2014-Jul-14 21:18N 31°25' E 121°30'0 0.0
2014-Jul-14 20:30N 31°25' E 121°30'0 0.0
2014-Jul-14 19:30N 31°25' E 121°30'0 0.0
2014-Jul-14 18:31N 31°25' E 121°30'7 6.9
2014-Jul-14 17:33N 31°22' E 121°37'1210.6
2014-Jul-14 16:28N 31°17' E 121°49'2510.7
2014-Jul-14 14:05N 31°07' E 122°17'712.2
2014-Jul-14 13:31N 31°06' E 122°25'  
Track history (hours):
 
Tides and Currents Weather Stations Pressure Air Temp Water Temp Dewpoint Dewpoint Depression Visibility Wind Speed Wind Dir Waves Ship Positions

Mariner Of The Seas

Operator: Royal Caribbean Cruises Ltd

Last reported at 2014-Jul-24 10:20 UTC. Time now 2014-Jul-25 03:50 UTC.
Position N 31°17' E 121°48'.

Type: Passenger vessel. MMSI: 311493000.

Date/timePositionNaut miles runAvg speedWind from/ knotsBaromVisibWave heightAir tempDewpointWater temp
2014-Jul-24 10:20N 31°17' E 121°48'1113.4
2014-Jul-24 09:33N 31°22' E 121°37'7 6.5
2014-Jul-24 08:31N 31°25' E 121°30'0 0.0
2014-Jul-24 07:31N 31°25' E 121°30'0 0.0
2014-Jul-24 06:31N 31°25' E 121°30'0 0.0
2014-Jul-24 05:31N 31°25' E 121°30'0 0.0
2014-Jul-24 04:13N 31°25' E 121°30'0 0.0
2014-Jul-24 03:31N 31°25' E 121°30'0 0.0
2014-Jul-24 02:31N 31°25' E 121°30'0 0.0
2014-Jul-24 01:31N 31°25' E 121°30'0 0.0
2014-Jul-24 00:31N 31°25' E 121°30'0 0.0
2014-Jul-23 23:31N 31°25' E 121°30'0 0.0
2014-Jul-23 22:33N 31°25' E 121°30'6 5.5
2014-Jul-23 21:32N 31°23' E 121°36'1212.2
2014-Jul-23 20:32N 31°17' E 121°49'2410.6
2014-Jul-23 18:18N 31°08' E 122°15'1013.2
2014-Jul-23 17:32N 31°06' E 122°26'409 7.9
2014-Jul-21 13:33N 33°41' E 129°55'1111.2
2014-Jul-21 12:33N 33°44' E 130°08'1010.3
2014-Jul-21 11:33N 33°39' E 130°18'5 4.1
2014-Jul-21 10:17N 33°37' E 130°24'0 0.0
2014-Jul-21 09:32N 33°37' E 130°24'0 0.0
2014-Jul-21 08:29N 33°37' E 130°24'0 0.0
2014-Jul-21 07:29N 33°37' E 130°24'0 0.0
2014-Jul-21 06:32N 33°37' E 130°24'0 0.0
2014-Jul-21 05:32N 33°37' E 130°24'0 0.0
2014-Jul-21 04:32N 33°37' E 130°24'0 0.0
2014-Jul-21 03:32N 33°37' E 130°24'0 0.0
2014-Jul-21 02:32N 33°37' E 130°24'0 0.0
2014-Jul-21 01:32N 33°37' E 130°24'4 3.7
2014-Jul-21 00:33N 33°38' E 130°20'1212.2
2014-Jul-20 23:33N 33°44' E 130°07'41112.1
2014-Jul-19 13:33N 31°14' E 122°34'3911.5
2014-Jul-19 10:09N 31°17' E 121°48'812.4
2014-Jul-19 09:32N 31°21' E 121°40'9 9.7
2014-Jul-19 08:33N 31°25' E 121°30'0 0.1
2014-Jul-19 07:31N 31°25' E 121°30'0 0.0
2014-Jul-19 06:31N 31°25' E 121°30'0 0.0
2014-Jul-19 05:31N 31°25' E 121°30'0 0.0
2014-Jul-19 04:31N 31°25' E 121°30'0 0.0
2014-Jul-19 03:25N 31°25' E 121°30'0 0.0
2014-Jul-19 02:25N 31°25' E 121°30'0 0.0
2014-Jul-19 01:31N 31°25' E 121°30'0 0.0
2014-Jul-19 00:31N 31°25' E 121°30'0 0.0
2014-Jul-18 23:31N 31°25' E 121°30'0 0.0
2014-Jul-18 22:26N 31°25' E 121°30'7 8.1
2014-Jul-18 21:33N 31°22' E 121°38'1211.7
2014-Jul-18 20:31N 31°17' E 121°51'2512.7
2014-Jul-18 18:33N 31°07' E 122°17'  
2014-Jul-15 09:32N 31°19' E 121°45'1212.2
2014-Jul-15 08:33N 31°24' E 121°32'2 1.8
2014-Jul-15 07:30N 31°25' E 121°30'0 0.0
2014-Jul-15 06:30N 31°25' E 121°30'0 0.0
2014-Jul-15 05:30N 31°25' E 121°30'0 0.0
2014-Jul-15 04:18N 31°25' E 121°30'0 0.0
2014-Jul-15 03:30N 31°25' E 121°30'0 0.0
2014-Jul-15 02:30N 31°25' E 121°30'0 0.0
2014-Jul-15 01:30N 31°25' E 121°30'0 0.0
2014-Jul-15 00:30N 31°25' E 121°30'0 0.0
2014-Jul-14 23:30N 31°25' E 121°30'0 0.0
2014-Jul-14 22:30N 31°25' E 121°30'0 0.0
2014-Jul-14 21:18N 31°25' E 121°30'0 0.0
2014-Jul-14 20:30N 31°25' E 121°30'0 0.0
2014-Jul-14 19:30N 31°25' E 121°30'0 0.0
2014-Jul-14 18:31N 31°25' E 121°30'7 6.9
2014-Jul-14 17:33N 31°22' E 121°37'1210.6
2014-Jul-14 16:28N 31°17' E 121°49'2510.7
2014-Jul-14 14:05N 31°07' E 122°17'712.2
2014-Jul-14 13:31N 31°06' E 122°25'  

Dump ship's entire track history